Holden, ME (04429)

4:37 PM EST on November 23, 2014 (GMT -0500)
Dole Hill | Change Station
CLOSE
Current Station
Personal Weather Station
Location: Holden, ME
Elevation: 463 ft
Nearby Weather Stations

Elev 463 ft 44.75 °N, 68.67 °W | Updated 42 seconds ago

Overcast
Overcast
45.0 °F
Feels Like 45 °F
N
2.0
Wind Variable Wind from SE
Gusts 4.0 mph

Today
High -- | Low -- °F
--% Chance of Precip.
Yesterday
High -- | Low -- °F
Precip. -- in
6:42 AM 3:59 PM
New Moon, 2% visible
Pressure 30.11 in
Visibility 10.0 miles
Clouds Mostly Cloudy 4000 ft
Overcast 5000 ft
Windchill 45 °F
Dew Point 35 °F
Humidity 68%
Rainfall 0.00 in
Snow Depth Not available.
UV 0 out of 12
Pollen .10 out of 12
Air Quality Not available.
Flu Activity Not available.
METAR KBGR 232053Z 00000KT 10SM BKN040 OVC050 07/01 A3011 RMK AO2 SLP195 T00670006 53019

More Conditions Fewer Conditions

Pressure 30.11 in
Visibility 10.0 miles
Clouds Mostly Cloudy 4000 ft
Overcast 5000 ft
Windchill 45 °F
Dew Point 35 °F
Humidity 68%
Rainfall 0.00 in
Snow Depth Not available.
UV 0 out of 12
Pollen .10 out of 12
Air Quality Not available.
Flu Activity Not available.
METAR KBGR 232053Z 00000KT 10SM BKN040 OVC050 07/01 A3011 RMK AO2 SLP195 T00670006 53019

More Conditions Fewer Conditions

10-Day Weather Forecast

Almanac

Astronomy

Nov. 23, 2014 Rise Set
Actual Time
Civil Twilight
Nautical Twilight
Astronomical Twilight
Moon
Length of Visible Light
Length of Day
Tomorrow will be .
, % of the Moon is Illuminated

Today's Extremes

State Highs State Lows

Community

WunderPhotos

Upload Photos

1,773,182 photos uploaded!

WunderBlogs® & News

Nearby

Air Quality

  Air Quality AQ Index Pollutant
Not available.

Snow Depth

Station Depth Elevation

Earthquake Activity

City Distance Mag. Time & Date
Minimum magnitude displayed is 2.5.

Coastal Water Temperatures

Place Temperature

Nearby Weather Stations